sensor_id;sensor_type;location;lat;lon;timestamp;P1;durP1;ratioP1;P2;durP2;ratioP2
5414;SDS011;2730;51.512;7.504;2024-03-08T00:01:00;23.75;;;10.73;;
5414;SDS011;2730;51.512;7.504;2024-03-08T00:03:26;26.33;;;12.35;;
5414;SDS011;2730;51.512;7.504;2024-03-08T00:05:54;27.23;;;12.10;;
5414;SDS011;2730;51.512;7.504;2024-03-08T00:08:21;32.78;;;12.30;;
5414;SDS011;2730;51.512;7.504;2024-03-08T00:10:48;28.25;;;12.70;;
5414;SDS011;2730;51.512;7.504;2024-03-08T00:13:16;25.80;;;11.35;;
5414;SDS011;2730;51.512;7.504;2024-03-08T00:15:43;22.40;;;11.50;;
5414;SDS011;2730;51.512;7.504;2024-03-08T00:18:09;25.65;;;12.23;;
5414;SDS011;2730;51.512;7.504;2024-03-08T00:20:36;23.95;;;12.23;;
5414;SDS011;2730;51.512;7.504;2024-03-08T00:23:03;21.77;;;11.00;;
5414;SDS011;2730;51.512;7.504;2024-03-08T00:25:30;25.17;;;11.70;;
5414;SDS011;2730;51.512;7.504;2024-03-08T00:27:56;25.10;;;11.20;;
5414;SDS011;2730;51.512;7.504;2024-03-08T00:30:26;25.10;;;10.57;;
5414;SDS011;2730;51.512;7.504;2024-03-08T00:32:53;28.08;;;11.10;;
5414;SDS011;2730;51.512;7.504;2024-03-08T00:35:19;30.17;;;12.45;;
5414;SDS011;2730;51.512;7.504;2024-03-08T00:37:46;28.40;;;14.40;;
5414;SDS011;2730;51.512;7.504;2024-03-08T00:40:13;19.60;;;10.07;;
5414;SDS011;2730;51.512;7.504;2024-03-08T00:42:40;20.80;;;10.85;;
5414;SDS011;2730;51.512;7.504;2024-03-08T00:45:09;27.02;;;12.45;;
5414;SDS011;2730;51.512;7.504;2024-03-08T00:47:37;26.55;;;11.00;;
5414;SDS011;2730;51.512;7.504;2024-03-08T00:50:04;23.95;;;11.95;;
5414;SDS011;2730;51.512;7.504;2024-03-08T00:52:33;27.90;;;12.60;;
5414;SDS011;2730;51.512;7.504;2024-03-08T00:55:00;25.38;;;11.05;;
5414;SDS011;2730;51.512;7.504;2024-03-08T00:57:26;24.08;;;11.88;;
5414;SDS011;2730;51.512;7.504;2024-03-08T00:59:53;24.88;;;10.98;;
5414;SDS011;2730;51.512;7.504;2024-03-08T01:02:21;25.75;;;11.05;;
5414;SDS011;2730;51.512;7.504;2024-03-08T01:04:49;29.83;;;14.63;;
5414;SDS011;2730;51.512;7.504;2024-03-08T01:07:16;26.40;;;12.85;;
5414;SDS011;2730;51.512;7.504;2024-03-08T01:09:43;25.13;;;10.57;;
5414;SDS011;2730;51.512;7.504;2024-03-08T01:12:09;32.55;;;11.93;;
5414;SDS011;2730;51.512;7.504;2024-03-08T01:14:36;22.00;;;11.07;;
5414;SDS011;2730;51.512;7.504;2024-03-08T01:17:03;23.15;;;11.10;;
5414;SDS011;2730;51.512;7.504;2024-03-08T01:19:30;22.88;;;10.70;;
5414;SDS011;2730;51.512;7.504;2024-03-08T01:21:59;24.58;;;10.98;;
5414;SDS011;2730;51.512;7.504;2024-03-08T01:24:26;26.85;;;11.35;;
5414;SDS011;2730;51.512;7.504;2024-03-08T01:26:52;30.00;;;11.63;;
5414;SDS011;2730;51.512;7.504;2024-03-08T01:29:19;27.95;;;11.82;;
5414;SDS011;2730;51.512;7.504;2024-03-08T01:31:46;27.45;;;11.85;;
5414;SDS011;2730;51.512;7.504;2024-03-08T01:34:13;18.33;;;9.93;;
5414;SDS011;2730;51.512;7.504;2024-03-08T01:36:39;21.13;;;10.32;;
5414;SDS011;2730;51.512;7.504;2024-03-08T01:39:07;21.45;;;10.40;;
5414;SDS011;2730;51.512;7.504;2024-03-08T01:41:35;24.17;;;10.93;;
5414;SDS011;2730;51.512;7.504;2024-03-08T01:44:02;26.10;;;10.40;;
5414;SDS011;2730;51.512;7.504;2024-03-08T01:46:29;26.10;;;11.57;;
5414;SDS011;2730;51.512;7.504;2024-03-08T01:48:56;39.83;;;10.30;;
5414;SDS011;2730;51.512;7.504;2024-03-08T01:51:23;28.23;;;11.93;;
5414;SDS011;2730;51.512;7.504;2024-03-08T01:53:50;17.33;;;9.20;;
5414;SDS011;2730;51.512;7.504;2024-03-08T01:56:18;25.17;;;11.07;;
5414;SDS011;2730;51.512;7.504;2024-03-08T01:58:45;20.25;;;10.68;;
5414;SDS011;2730;51.512;7.504;2024-03-08T02:01:12;20.83;;;10.15;;
5414;SDS011;2730;51.512;7.504;2024-03-08T02:03:40;21.70;;;9.73;;
5414;SDS011;2730;51.512;7.504;2024-03-08T02:06:08;31.85;;;10.98;;
5414;SDS011;2730;51.512;7.504;2024-03-08T02:08:35;21.60;;;10.55;;
5414;SDS011;2730;51.512;7.504;2024-03-08T02:11:03;18.92;;;10.52;;
5414;SDS011;2730;51.512;7.504;2024-03-08T02:13:32;29.20;;;11.00;;
5414;SDS011;2730;51.512;7.504;2024-03-08T02:15:59;24.27;;;10.65;;
5414;SDS011;2730;51.512;7.504;2024-03-08T02:18:27;26.25;;;11.45;;
5414;SDS011;2730;51.512;7.504;2024-03-08T02:20:56;29.42;;;12.75;;
5414;SDS011;2730;51.512;7.504;2024-03-08T02:23:24;35.65;;;11.20;;
5414;SDS011;2730;51.512;7.504;2024-03-08T02:25:52;23.33;;;10.15;;
5414;SDS011;2730;51.512;7.504;2024-03-08T02:28:19;32.20;;;12.45;;
5414;SDS011;2730;51.512;7.504;2024-03-08T02:30:46;26.55;;;10.82;;
5414;SDS011;2730;51.512;7.504;2024-03-08T02:33:13;32.83;;;10.68;;
5414;SDS011;2730;51.512;7.504;2024-03-08T02:35:41;22.70;;;10.20;;
5414;SDS011;2730;51.512;7.504;2024-03-08T02:38:12;33.95;;;12.63;;
5414;SDS011;2730;51.512;7.504;2024-03-08T02:40:41;23.20;;;10.98;;
5414;SDS011;2730;51.512;7.504;2024-03-08T02:43:07;22.23;;;10.52;;
5414;SDS011;2730;51.512;7.504;2024-03-08T02:45:34;33.53;;;13.05;;
5414;SDS011;2730;51.512;7.504;2024-03-08T02:48:01;25.73;;;11.27;;
5414;SDS011;2730;51.512;7.504;2024-03-08T02:50:28;32.00;;;11.70;;
5414;SDS011;2730;51.512;7.504;2024-03-08T02:52:55;32.42;;;12.05;;
5414;SDS011;2730;51.512;7.504;2024-03-08T02:55:23;39.70;;;12.90;;
5414;SDS011;2730;51.512;7.504;2024-03-08T02:57:51;31.13;;;12.75;;
5414;SDS011;2730;51.512;7.504;2024-03-08T03:00:19;28.75;;;12.65;;
5414;SDS011;2730;51.512;7.504;2024-03-08T03:02:48;48.60;;;13.80;;
5414;SDS011;2730;51.512;7.504;2024-03-08T03:05:17;33.83;;;13.18;;
5414;SDS011;2730;51.512;7.504;2024-03-08T03:07:43;34.88;;;12.65;;
5414;SDS011;2730;51.512;7.504;2024-03-08T03:10:10;31.35;;;12.88;;
5414;SDS011;2730;51.512;7.504;2024-03-08T03:12:43;37.70;;;13.30;;
5414;SDS011;2730;51.512;7.504;2024-03-08T03:15:11;32.78;;;14.02;;
5414;SDS011;2730;51.512;7.504;2024-03-08T03:17:38;29.23;;;12.93;;
5414;SDS011;2730;51.512;7.504;2024-03-08T03:20:05;27.45;;;11.45;;
5414;SDS011;2730;51.512;7.504;2024-03-08T03:22:36;27.00;;;12.60;;
5414;SDS011;2730;51.512;7.504;2024-03-08T03:25:03;37.20;;;13.45;;
5414;SDS011;2730;51.512;7.504;2024-03-08T03:27:31;29.83;;;12.65;;
5414;SDS011;2730;51.512;7.504;2024-03-08T03:29:59;42.67;;;14.13;;
5414;SDS011;2730;51.512;7.504;2024-03-08T03:32:45;30.15;;;12.25;;
5414;SDS011;2730;51.512;7.504;2024-03-08T03:35:12;37.58;;;13.18;;
5414;SDS011;2730;51.512;7.504;2024-03-08T03:37:40;26.52;;;12.68;;
5414;SDS011;2730;51.512;7.504;2024-03-08T03:40:10;33.60;;;12.82;;
5414;SDS011;2730;51.512;7.504;2024-03-08T03:42:38;33.50;;;13.80;;
5414;SDS011;2730;51.512;7.504;2024-03-08T03:45:06;34.33;;;12.98;;
5414;SDS011;2730;51.512;7.504;2024-03-08T03:47:35;39.33;;;13.55;;
5414;SDS011;2730;51.512;7.504;2024-03-08T03:50:03;33.40;;;12.82;;
5414;SDS011;2730;51.512;7.504;2024-03-08T03:52:30;30.33;;;12.85;;
5414;SDS011;2730;51.512;7.504;2024-03-08T03:54:57;32.25;;;13.50;;
5414;SDS011;2730;51.512;7.504;2024-03-08T03:57:24;42.08;;;15.00;;
5414;SDS011;2730;51.512;7.504;2024-03-08T03:59:51;30.52;;;13.35;;
5414;SDS011;2730;51.512;7.504;2024-03-08T04:02:19;26.90;;;11.82;;
5414;SDS011;2730;51.512;7.504;2024-03-08T04:04:46;31.63;;;13.57;;
5414;SDS011;2730;51.512;7.504;2024-03-08T04:07:13;39.80;;;14.00;;
5414;SDS011;2730;51.512;7.504;2024-03-08T04:09:39;27.02;;;12.57;;
5414;SDS011;2730;51.512;7.504;2024-03-08T04:12:05;30.87;;;13.13;;
5414;SDS011;2730;51.512;7.504;2024-03-08T04:14:34;41.33;;;15.20;;
5414;SDS011;2730;51.512;7.504;2024-03-08T04:17:01;35.30;;;13.77;;
5414;SDS011;2730;51.512;7.504;2024-03-08T04:19:29;36.58;;;13.50;;
5414;SDS011;2730;51.512;7.504;2024-03-08T04:21:56;41.03;;;14.57;;
5414;SDS011;2730;51.512;7.504;2024-03-08T04:24:23;37.35;;;13.90;;
5414;SDS011;2730;51.512;7.504;2024-03-08T04:26:50;27.13;;;13.57;;
5414;SDS011;2730;51.512;7.504;2024-03-08T04:29:18;36.72;;;13.32;;
5414;SDS011;2730;51.512;7.504;2024-03-08T04:31:44;34.40;;;14.95;;
5414;SDS011;2730;51.512;7.504;2024-03-08T04:34:12;39.83;;;14.73;;
5414;SDS011;2730;51.512;7.504;2024-03-08T04:36:41;33.15;;;13.70;;
5414;SDS011;2730;51.512;7.504;2024-03-08T04:39:07;37.67;;;13.95;;
5414;SDS011;2730;51.512;7.504;2024-03-08T04:41:37;42.60;;;14.70;;
5414;SDS011;2730;51.512;7.504;2024-03-08T04:44:04;34.58;;;13.90;;
5414;SDS011;2730;51.512;7.504;2024-03-08T04:46:31;34.95;;;13.88;;
5414;SDS011;2730;51.512;7.504;2024-03-08T04:49:00;42.95;;;15.27;;
5414;SDS011;2730;51.512;7.504;2024-03-08T04:51:27;33.85;;;14.55;;
5414;SDS011;2730;51.512;7.504;2024-03-08T04:53:55;38.78;;;14.95;;
5414;SDS011;2730;51.512;7.504;2024-03-08T04:56:22;40.28;;;14.77;;
5414;SDS011;2730;51.512;7.504;2024-03-08T04:58:48;41.70;;;13.40;;
5414;SDS011;2730;51.512;7.504;2024-03-08T05:01:15;36.65;;;13.70;;
5414;SDS011;2730;51.512;7.504;2024-03-08T05:03:42;33.65;;;13.68;;
5414;SDS011;2730;51.512;7.504;2024-03-08T05:06:09;38.75;;;14.25;;
5414;SDS011;2730;51.512;7.504;2024-03-08T05:08:35;42.22;;;14.52;;
5414;SDS011;2730;51.512;7.504;2024-03-08T05:11:03;40.60;;;13.90;;
5414;SDS011;2730;51.512;7.504;2024-03-08T05:13:32;33.50;;;13.20;;
5414;SDS011;2730;51.512;7.504;2024-03-08T05:15:59;42.35;;;14.82;;
5414;SDS011;2730;51.512;7.504;2024-03-08T05:18:26;35.10;;;14.02;;
5414;SDS011;2730;51.512;7.504;2024-03-08T05:20:53;32.40;;;13.63;;
5414;SDS011;2730;51.512;7.504;2024-03-08T05:23:20;41.10;;;14.52;;
5414;SDS011;2730;51.512;7.504;2024-03-08T05:25:47;39.63;;;15.15;;
5414;SDS011;2730;51.512;7.504;2024-03-08T05:28:15;37.60;;;15.60;;
5414;SDS011;2730;51.512;7.504;2024-03-08T05:30:42;40.95;;;15.48;;
5414;SDS011;2730;51.512;7.504;2024-03-08T05:33:09;42.13;;;14.82;;
5414;SDS011;2730;51.512;7.504;2024-03-08T05:35:36;39.97;;;16.63;;
5414;SDS011;2730;51.512;7.504;2024-03-08T05:38:03;37.67;;;13.80;;
5414;SDS011;2730;51.512;7.504;2024-03-08T05:40:30;43.97;;;15.75;;
5414;SDS011;2730;51.512;7.504;2024-03-08T05:42:57;43.85;;;15.38;;
5414;SDS011;2730;51.512;7.504;2024-03-08T05:45:25;37.13;;;15.80;;
5414;SDS011;2730;51.512;7.504;2024-03-08T05:47:52;35.58;;;15.30;;
5414;SDS011;2730;51.512;7.504;2024-03-08T05:50:19;46.78;;;15.70;;
5414;SDS011;2730;51.512;7.504;2024-03-08T05:52:46;38.25;;;18.20;;
5414;SDS011;2730;51.512;7.504;2024-03-08T05:55:14;50.03;;;14.75;;
5414;SDS011;2730;51.512;7.504;2024-03-08T05:57:41;47.78;;;15.55;;
5414;SDS011;2730;51.512;7.504;2024-03-08T06:00:09;39.20;;;16.05;;
5414;SDS011;2730;51.512;7.504;2024-03-08T06:02:38;38.40;;;14.23;;
5414;SDS011;2730;51.512;7.504;2024-03-08T06:05:07;41.90;;;16.35;;
5414;SDS011;2730;51.512;7.504;2024-03-08T06:07:34;41.35;;;15.32;;
5414;SDS011;2730;51.512;7.504;2024-03-08T06:10:01;37.00;;;15.18;;
5414;SDS011;2730;51.512;7.504;2024-03-08T06:12:29;41.67;;;14.57;;
5414;SDS011;2730;51.512;7.504;2024-03-08T06:14:58;40.95;;;16.52;;
5414;SDS011;2730;51.512;7.504;2024-03-08T06:17:25;43.00;;;13.70;;
5414;SDS011;2730;51.512;7.504;2024-03-08T06:19:53;38.53;;;13.50;;
5414;SDS011;2730;51.512;7.504;2024-03-08T06:22:20;38.80;;;15.13;;
5414;SDS011;2730;51.512;7.504;2024-03-08T06:24:47;34.05;;;13.65;;
5414;SDS011;2730;51.512;7.504;2024-03-08T06:27:13;36.67;;;14.70;;
5414;SDS011;2730;51.512;7.504;2024-03-08T06:29:40;38.40;;;16.05;;
5414;SDS011;2730;51.512;7.504;2024-03-08T06:32:07;34.53;;;12.80;;
5414;SDS011;2730;51.512;7.504;2024-03-08T06:34:33;38.00;;;13.63;;
5414;SDS011;2730;51.512;7.504;2024-03-08T06:37:01;42.80;;;15.90;;
5414;SDS011;2730;51.512;7.504;2024-03-08T06:39:28;36.38;;;14.73;;
5414;SDS011;2730;51.512;7.504;2024-03-08T06:41:57;38.95;;;16.00;;
5414;SDS011;2730;51.512;7.504;2024-03-08T06:44:23;47.10;;;15.43;;
5414;SDS011;2730;51.512;7.504;2024-03-08T06:46:50;48.72;;;15.70;;
5414;SDS011;2730;51.512;7.504;2024-03-08T06:49:17;43.75;;;15.35;;
5414;SDS011;2730;51.512;7.504;2024-03-08T06:51:44;37.92;;;17.40;;
5414;SDS011;2730;51.512;7.504;2024-03-08T06:54:12;46.92;;;17.15;;
5414;SDS011;2730;51.512;7.504;2024-03-08T06:56:39;42.45;;;16.38;;
5414;SDS011;2730;51.512;7.504;2024-03-08T06:59:06;37.75;;;14.93;;
5414;SDS011;2730;51.512;7.504;2024-03-08T07:01:35;33.38;;;14.70;;
5414;SDS011;2730;51.512;7.504;2024-03-08T07:04:03;44.28;;;14.30;;
5414;SDS011;2730;51.512;7.504;2024-03-08T07:06:31;32.55;;;14.55;;
5414;SDS011;2730;51.512;7.504;2024-03-08T07:08:58;43.35;;;18.30;;
5414;SDS011;2730;51.512;7.504;2024-03-08T07:11:26;36.45;;;15.38;;
5414;SDS011;2730;51.512;7.504;2024-03-08T07:13:53;33.08;;;11.77;;
5414;SDS011;2730;51.512;7.504;2024-03-08T07:16:20;41.80;;;14.52;;
5414;SDS011;2730;51.512;7.504;2024-03-08T07:18:47;33.92;;;13.55;;
5414;SDS011;2730;51.512;7.504;2024-03-08T07:21:17;37.58;;;14.07;;
5414;SDS011;2730;51.512;7.504;2024-03-08T07:23:44;43.92;;;17.27;;
5414;SDS011;2730;51.512;7.504;2024-03-08T07:26:29;40.65;;;15.13;;
5414;SDS011;2730;51.512;7.504;2024-03-08T07:28:56;39.90;;;17.15;;
5414;SDS011;2730;51.512;7.504;2024-03-08T07:31:25;31.77;;;13.02;;
5414;SDS011;2730;51.512;7.504;2024-03-08T07:34:03;42.75;;;15.25;;
5414;SDS011;2730;51.512;7.504;2024-03-08T07:36:32;39.10;;;14.77;;
5414;SDS011;2730;51.512;7.504;2024-03-08T07:38:59;33.60;;;14.65;;
5414;SDS011;2730;51.512;7.504;2024-03-08T07:41:26;35.78;;;14.20;;
5414;SDS011;2730;51.512;7.504;2024-03-08T07:43:55;37.45;;;15.68;;
5414;SDS011;2730;51.512;7.504;2024-03-08T07:46:21;38.03;;;14.27;;
5414;SDS011;2730;51.512;7.504;2024-03-08T07:48:48;31.75;;;14.68;;
5414;SDS011;2730;51.512;7.504;2024-03-08T07:51:15;41.00;;;15.70;;
5414;SDS011;2730;51.512;7.504;2024-03-08T07:53:42;37.65;;;15.10;;
5414;SDS011;2730;51.512;7.504;2024-03-08T07:56:10;39.88;;;15.60;;
5414;SDS011;2730;51.512;7.504;2024-03-08T07:58:40;39.75;;;16.25;;
5414;SDS011;2730;51.512;7.504;2024-03-08T08:01:06;33.88;;;13.98;;
5414;SDS011;2730;51.512;7.504;2024-03-08T08:03:33;31.52;;;15.43;;
5414;SDS011;2730;51.512;7.504;2024-03-08T08:06:03;39.53;;;15.10;;
5414;SDS011;2730;51.512;7.504;2024-03-08T08:08:30;34.22;;;13.82;;
5414;SDS011;2730;51.512;7.504;2024-03-08T08:10:57;37.03;;;15.55;;
5414;SDS011;2730;51.512;7.504;2024-03-08T08:13:24;42.17;;;15.60;;
5414;SDS011;2730;51.512;7.504;2024-03-08T08:15:54;36.75;;;14.18;;
5414;SDS011;2730;51.512;7.504;2024-03-08T08:18:21;37.35;;;14.90;;
5414;SDS011;2730;51.512;7.504;2024-03-08T08:20:50;35.47;;;13.65;;
5414;SDS011;2730;51.512;7.504;2024-03-08T08:23:17;38.13;;;16.00;;
5414;SDS011;2730;51.512;7.504;2024-03-08T08:25:44;34.17;;;13.02;;
5414;SDS011;2730;51.512;7.504;2024-03-08T08:28:11;40.70;;;15.38;;
5414;SDS011;2730;51.512;7.504;2024-03-08T08:30:38;38.55;;;16.02;;
5414;SDS011;2730;51.512;7.504;2024-03-08T08:33:06;30.15;;;13.07;;
5414;SDS011;2730;51.512;7.504;2024-03-08T08:35:33;38.08;;;13.40;;
5414;SDS011;2730;51.512;7.504;2024-03-08T08:38:00;41.47;;;13.70;;
5414;SDS011;2730;51.512;7.504;2024-03-08T08:40:28;28.42;;;13.80;;
5414;SDS011;2730;51.512;7.504;2024-03-08T08:42:56;41.92;;;15.32;;
5414;SDS011;2730;51.512;7.504;2024-03-08T08:45:23;33.55;;;14.40;;
5414;SDS011;2730;51.512;7.504;2024-03-08T08:47:50;29.95;;;13.43;;
5414;SDS011;2730;51.512;7.504;2024-03-08T08:50:18;33.42;;;13.20;;
5414;SDS011;2730;51.512;7.504;2024-03-08T08:52:48;30.98;;;12.38;;
5414;SDS011;2730;51.512;7.504;2024-03-08T08:55:15;26.92;;;13.20;;
5414;SDS011;2730;51.512;7.504;2024-03-08T08:57:45;23.10;;;12.18;;
5414;SDS011;2730;51.512;7.504;2024-03-08T09:00:12;26.42;;;13.30;;
5414;SDS011;2730;51.512;7.504;2024-03-08T09:02:40;26.83;;;11.68;;
5414;SDS011;2730;51.512;7.504;2024-03-08T09:05:08;23.85;;;11.85;;
5414;SDS011;2730;51.512;7.504;2024-03-08T09:07:36;26.27;;;13.88;;
5414;SDS011;2730;51.512;7.504;2024-03-08T09:10:03;27.42;;;13.90;;
5414;SDS011;2730;51.512;7.504;2024-03-08T09:12:30;27.40;;;13.57;;
5414;SDS011;2730;51.512;7.504;2024-03-08T09:14:57;25.17;;;12.50;;
5414;SDS011;2730;51.512;7.504;2024-03-08T09:17:24;23.80;;;12.32;;
5414;SDS011;2730;51.512;7.504;2024-03-08T09:19:51;23.90;;;11.85;;
5414;SDS011;2730;51.512;7.504;2024-03-08T09:22:19;26.25;;;13.70;;
5414;SDS011;2730;51.512;7.504;2024-03-08T09:24:47;27.65;;;12.70;;
5414;SDS011;2730;51.512;7.504;2024-03-08T09:27:14;26.38;;;12.80;;
5414;SDS011;2730;51.512;7.504;2024-03-08T09:29:40;29.60;;;12.57;;
5414;SDS011;2730;51.512;7.504;2024-03-08T09:32:09;26.83;;;13.25;;
5414;SDS011;2730;51.512;7.504;2024-03-08T09:34:36;28.45;;;13.38;;
5414;SDS011;2730;51.512;7.504;2024-03-08T09:37:03;29.20;;;13.07;;
5414;SDS011;2730;51.512;7.504;2024-03-08T09:39:30;29.33;;;12.32;;
5414;SDS011;2730;51.512;7.504;2024-03-08T09:41:59;28.55;;;13.10;;
5414;SDS011;2730;51.512;7.504;2024-03-08T09:44:26;28.05;;;12.98;;
5414;SDS011;2730;51.512;7.504;2024-03-08T09:46:53;24.63;;;13.00;;
5414;SDS011;2730;51.512;7.504;2024-03-08T09:49:23;20.88;;;11.77;;
5414;SDS011;2730;51.512;7.504;2024-03-08T09:51:49;28.77;;;14.20;;
5414;SDS011;2730;51.512;7.504;2024-03-08T09:54:17;39.30;;;12.23;;
5414;SDS011;2730;51.512;7.504;2024-03-08T09:56:45;25.77;;;12.80;;
5414;SDS011;2730;51.512;7.504;2024-03-08T09:59:16;28.00;;;13.32;;
5414;SDS011;2730;51.512;7.504;2024-03-08T10:02:08;22.83;;;11.80;;
5414;SDS011;2730;51.512;7.504;2024-03-08T10:04:40;27.60;;;11.27;;
5414;SDS011;2730;51.512;7.504;2024-03-08T10:07:08;26.90;;;11.00;;
5414;SDS011;2730;51.512;7.504;2024-03-08T10:09:35;24.75;;;12.48;;
5414;SDS011;2730;51.512;7.504;2024-03-08T10:12:01;30.13;;;11.80;;
5414;SDS011;2730;51.512;7.504;2024-03-08T10:14:30;24.65;;;13.23;;
5414;SDS011;2730;51.512;7.504;2024-03-08T10:16:57;27.10;;;13.45;;
5414;SDS011;2730;51.512;7.504;2024-03-08T10:19:25;22.67;;;9.82;;
5414;SDS011;2730;51.512;7.504;2024-03-08T10:21:52;20.70;;;10.95;;
5414;SDS011;2730;51.512;7.504;2024-03-08T10:24:21;24.02;;;11.70;;
5414;SDS011;2730;51.512;7.504;2024-03-08T10:26:51;26.83;;;11.98;;
5414;SDS011;2730;51.512;7.504;2024-03-08T10:29:18;30.63;;;13.48;;
5414;SDS011;2730;51.512;7.504;2024-03-08T10:31:46;26.42;;;12.93;;
5414;SDS011;2730;51.512;7.504;2024-03-08T10:34:15;20.90;;;10.85;;
5414;SDS011;2730;51.512;7.504;2024-03-08T10:36:41;27.00;;;11.65;;
5414;SDS011;2730;51.512;7.504;2024-03-08T10:39:10;26.70;;;11.70;;
5414;SDS011;2730;51.512;7.504;2024-03-08T10:41:44;31.27;;;12.48;;
5414;SDS011;2730;51.512;7.504;2024-03-08T10:44:17;22.05;;;12.02;;
5414;SDS011;2730;51.512;7.504;2024-03-08T10:47:00;21.98;;;10.98;;
5414;SDS011;2730;51.512;7.504;2024-03-08T10:49:31;22.02;;;12.35;;
5414;SDS011;2730;51.512;7.504;2024-03-08T10:52:03;25.02;;;12.85;;
5414;SDS011;2730;51.512;7.504;2024-03-08T10:54:33;28.55;;;12.88;;
5414;SDS011;2730;51.512;7.504;2024-03-08T10:57:03;23.63;;;12.15;;
5414;SDS011;2730;51.512;7.504;2024-03-08T10:59:33;29.33;;;13.10;;
5414;SDS011;2730;51.512;7.504;2024-03-08T11:02:02;26.85;;;12.45;;
5414;SDS011;2730;51.512;7.504;2024-03-08T11:04:30;22.27;;;13.07;;
5414;SDS011;2730;51.512;7.504;2024-03-08T11:07:00;25.20;;;12.10;;
5414;SDS011;2730;51.512;7.504;2024-03-08T11:09:31;22.40;;;11.38;;
5414;SDS011;2730;51.512;7.504;2024-03-08T11:12:19;23.05;;;10.98;;
5414;SDS011;2730;51.512;7.504;2024-03-08T11:14:50;23.95;;;10.60;;
5414;SDS011;2730;51.512;7.504;2024-03-08T11:17:22;25.98;;;11.90;;
5414;SDS011;2730;51.512;7.504;2024-03-08T11:19:59;23.83;;;12.10;;
5414;SDS011;2730;51.512;7.504;2024-03-08T11:22:31;27.33;;;12.55;;
5414;SDS011;2730;51.512;7.504;2024-03-08T11:24:59;28.50;;;12.98;;
5414;SDS011;2730;51.512;7.504;2024-03-08T11:27:28;27.90;;;12.60;;
5414;SDS011;2730;51.512;7.504;2024-03-08T11:30:00;23.52;;;11.10;;
5414;SDS011;2730;51.512;7.504;2024-03-08T11:32:37;34.55;;;13.15;;
5414;SDS011;2730;51.512;7.504;2024-03-08T11:35:05;25.23;;;10.23;;
5414;SDS011;2730;51.512;7.504;2024-03-08T11:37:34;25.63;;;10.57;;
5414;SDS011;2730;51.512;7.504;2024-03-08T11:40:01;22.27;;;11.45;;
5414;SDS011;2730;51.512;7.504;2024-03-08T11:42:30;19.27;;;10.23;;
5414;SDS011;2730;51.512;7.504;2024-03-08T11:44:57;17.30;;;8.32;;
5414;SDS011;2730;51.512;7.504;2024-03-08T11:47:23;18.20;;;8.52;;
5414;SDS011;2730;51.512;7.504;2024-03-08T11:49:52;14.25;;;6.60;;
5414;SDS011;2730;51.512;7.504;2024-03-08T11:52:19;10.40;;;6.20;;
5414;SDS011;2730;51.512;7.504;2024-03-08T11:54:51;9.85;;;6.25;;
5414;SDS011;2730;51.512;7.504;2024-03-08T11:57:22;14.15;;;5.60;;
5414;SDS011;2730;51.512;7.504;2024-03-08T11:59:49;11.82;;;5.60;;
5414;SDS011;2730;51.512;7.504;2024-03-08T12:02:16;10.30;;;5.63;;
5414;SDS011;2730;51.512;7.504;2024-03-08T12:04:44;11.18;;;5.68;;
5414;SDS011;2730;51.512;7.504;2024-03-08T12:07:13;10.45;;;6.30;;
5414;SDS011;2730;51.512;7.504;2024-03-08T12:09:43;16.13;;;6.70;;
5414;SDS011;2730;51.512;7.504;2024-03-08T12:12:37;13.60;;;7.07;;
5414;SDS011;2730;51.512;7.504;2024-03-08T12:15:05;15.35;;;7.13;;
5414;SDS011;2730;51.512;7.504;2024-03-08T12:17:33;12.98;;;6.78;;
5414;SDS011;2730;51.512;7.504;2024-03-08T12:20:10;9.05;;;5.35;;
5414;SDS011;2730;51.512;7.504;2024-03-08T12:22:41;11.57;;;7.25;;
5414;SDS011;2730;51.512;7.504;2024-03-08T12:25:09;9.30;;;5.97;;
5414;SDS011;2730;51.512;7.504;2024-03-08T12:27:38;12.00;;;6.63;;
5414;SDS011;2730;51.512;7.504;2024-03-08T12:30:18;14.75;;;7.22;;
5414;SDS011;2730;51.512;7.504;2024-03-08T12:32:48;12.23;;;7.05;;
5414;SDS011;2730;51.512;7.504;2024-03-08T12:35:19;8.60;;;5.72;;
5414;SDS011;2730;51.512;7.504;2024-03-08T12:37:48;11.85;;;6.78;;
5414;SDS011;2730;51.512;7.504;2024-03-08T12:40:16;11.45;;;5.70;;
5414;SDS011;2730;51.512;7.504;2024-03-08T12:42:43;7.03;;;5.10;;
5414;SDS011;2730;51.512;7.504;2024-03-08T12:45:12;11.35;;;6.15;;
5414;SDS011;2730;51.512;7.504;2024-03-08T12:47:39;9.13;;;6.07;;
5414;SDS011;2730;51.512;7.504;2024-03-08T12:50:07;11.68;;;6.00;;
5414;SDS011;2730;51.512;7.504;2024-03-08T12:52:34;8.82;;;5.03;;
5414;SDS011;2730;51.512;7.504;2024-03-08T12:55:03;11.88;;;6.38;;
5414;SDS011;2730;51.512;7.504;2024-03-08T12:57:31;10.40;;;5.50;;
5414;SDS011;2730;51.512;7.504;2024-03-08T12:59:59;9.98;;;5.95;;
5414;SDS011;2730;51.512;7.504;2024-03-08T13:02:27;11.43;;;5.65;;
5414;SDS011;2730;51.512;7.504;2024-03-08T13:04:54;9.88;;;5.70;;
5414;SDS011;2730;51.512;7.504;2024-03-08T13:07:22;11.88;;;5.82;;
5414;SDS011;2730;51.512;7.504;2024-03-08T13:09:50;10.63;;;5.60;;
5414;SDS011;2730;51.512;7.504;2024-03-08T13:12:19;8.57;;;5.78;;
5414;SDS011;2730;51.512;7.504;2024-03-08T13:14:47;10.02;;;6.30;;
5414;SDS011;2730;51.512;7.504;2024-03-08T13:17:13;9.32;;;4.90;;
5414;SDS011;2730;51.512;7.504;2024-03-08T13:19:40;12.68;;;5.30;;
5414;SDS011;2730;51.512;7.504;2024-03-08T13:22:07;10.75;;;6.32;;
5414;SDS011;2730;51.512;7.504;2024-03-08T13:24:37;9.23;;;5.43;;
5414;SDS011;2730;51.512;7.504;2024-03-08T13:27:05;9.70;;;6.20;;
5414;SDS011;2730;51.512;7.504;2024-03-08T13:29:45;16.90;;;7.90;;
5414;SDS011;2730;51.512;7.504;2024-03-08T13:32:13;10.75;;;5.40;;
5414;SDS011;2730;51.512;7.504;2024-03-08T13:34:41;9.48;;;5.70;;
5414;SDS011;2730;51.512;7.504;2024-03-08T13:37:07;10.25;;;5.90;;
5414;SDS011;2730;51.512;7.504;2024-03-08T13:39:35;11.80;;;6.22;;
5414;SDS011;2730;51.512;7.504;2024-03-08T13:42:06;13.02;;;6.15;;
5414;SDS011;2730;51.512;7.504;2024-03-08T13:44:34;17.65;;;6.70;;
5414;SDS011;2730;51.512;7.504;2024-03-08T13:47:02;15.18;;;7.53;;
5414;SDS011;2730;51.512;7.504;2024-03-08T13:49:30;14.38;;;7.60;;
5414;SDS011;2730;51.512;7.504;2024-03-08T13:51:58;14.40;;;7.65;;
5414;SDS011;2730;51.512;7.504;2024-03-08T13:54:24;14.75;;;6.40;;
5414;SDS011;2730;51.512;7.504;2024-03-08T13:56:55;17.05;;;8.05;;
5414;SDS011;2730;51.512;7.504;2024-03-08T13:59:22;18.60;;;8.43;;
5414;SDS011;2730;51.512;7.504;2024-03-08T14:01:49;15.02;;;8.10;;
5414;SDS011;2730;51.512;7.504;2024-03-08T14:04:17;13.05;;;7.75;;
5414;SDS011;2730;51.512;7.504;2024-03-08T14:06:44;13.88;;;7.32;;
5414;SDS011;2730;51.512;7.504;2024-03-08T14:09:11;11.25;;;6.70;;
5414;SDS011;2730;51.512;7.504;2024-03-08T14:11:41;14.20;;;7.05;;
5414;SDS011;2730;51.512;7.504;2024-03-08T14:14:09;17.45;;;8.23;;
5414;SDS011;2730;51.512;7.504;2024-03-08T14:16:37;14.52;;;7.60;;
5414;SDS011;2730;51.512;7.504;2024-03-08T14:19:04;17.67;;;7.22;;
5414;SDS011;2730;51.512;7.504;2024-03-08T14:21:32;14.13;;;7.22;;
5414;SDS011;2730;51.512;7.504;2024-03-08T14:23:59;13.07;;;7.78;;
5414;SDS011;2730;51.512;7.504;2024-03-08T14:26:26;14.32;;;6.70;;
5414;SDS011;2730;51.512;7.504;2024-03-08T14:28:52;11.73;;;5.32;;
5414;SDS011;2730;51.512;7.504;2024-03-08T14:31:19;13.95;;;7.65;;
5414;SDS011;2730;51.512;7.504;2024-03-08T14:33:50;18.13;;;8.07;;
5414;SDS011;2730;51.512;7.504;2024-03-08T14:36:17;14.40;;;6.88;;
5414;SDS011;2730;51.512;7.504;2024-03-08T14:38:46;12.45;;;6.20;;
5414;SDS011;2730;51.512;7.504;2024-03-08T14:41:13;13.07;;;7.22;;
5414;SDS011;2730;51.512;7.504;2024-03-08T14:43:41;13.27;;;7.43;;
5414;SDS011;2730;51.512;7.504;2024-03-08T14:46:09;11.70;;;7.15;;
5414;SDS011;2730;51.512;7.504;2024-03-08T14:48:39;11.15;;;6.80;;
5414;SDS011;2730;51.512;7.504;2024-03-08T14:51:06;12.02;;;6.88;;
5414;SDS011;2730;51.512;7.504;2024-03-08T14:53:35;18.17;;;7.28;;
5414;SDS011;2730;51.512;7.504;2024-03-08T14:56:07;14.77;;;7.50;;